Flight Track Log - Related Links

Times and Time Zones

All times are in EDT time to prevent confusion due to time zone crossing. See the DAL268 flight status page for this flight to view local times or setup timezone preferences in your user account.

Time Position Orientation Groundspeed Altitude Reporting Facility
EDT Latitude Longitude Course Direction KTS MPH feet Rate Location/Type
Wed 02:42:55 PM 37.6118 -122.3720 90° East 166 191 400  Level FlightAware ADS-B
Wed 02:43:04 PM 37.6176 -122.3680 29° Northeast 160 184 900 3,000 Climbing FlightAware ADS-B
Wed 02:43:07 PM 37.6197 -122.3660 37° Northeast 160 184 1,000 2,727 Climbing FlightAware ADS-B
Wed 02:43:15 PM 37.6246 -122.3620 33° Northeast 159 183 1,400 2,571 Climbing FlightAware ADS-B
Wed 02:43:21 PM 37.6273 -122.3580 50° Northeast 165 190 1,600 1,500 Climbing FlightAware ADS-B
Wed 02:43:31 PM 37.6326 -122.3500 50° Northeast 178 205 1,800 1,286 Climbing FlightAware ADS-B
Wed 02:43:49 PM 37.6433 -122.3350 48° Northeast 202 232 2,200 1,636 Climbing FlightAware ADS-B
Wed 02:44:04 PM 37.6533 -122.3200 50° Northeast 226 260 2,700 2,063 Climbing FlightAware ADS-B
Wed 02:44:21 PM 37.6647 -122.3030 50° Northeast 242 278 3,300 2,471 Climbing FlightAware ADS-B
Wed 02:44:38 PM 37.6770 -122.2840 51° Northeast 249 287 4,100 3,273 Climbing FlightAware ADS-B
Wed 02:44:54 PM 37.6889 -122.2660 50° Northeast 248 285 5,100 3,405 Climbing FlightAware ADS-B
Wed 02:45:15 PM 37.7051 -122.2420 50° Northeast 252 290 6,200 2,864 Climbing FlightAware ADS-B
Wed 02:45:38 PM 37.7231 -122.2160 49° Northeast 267 307 7,200 3,000 Climbing FlightAware ADS-B
Wed 02:45:53 PM 37.7355 -122.1970 50° Northeast 269 310 8,100 3,400 Climbing FlightAware ADS-B
Wed 02:46:08 PM 37.7479 -122.1790 49° Northeast 269 310 8,900 3,091 Climbing FlightAware ADS-B
Wed 02:46:26 PM 37.7613 -122.1570 52° Northeast 276 318 9,800 2,889 Climbing FlightAware ADS-B
Wed 02:46:35 PM 37.7659 -122.1430 67° East 279 321 10,200 2,143 Climbing FlightAware ADS-B
Wed 02:47:08 PM 37.7795 -122.0900 72° East 303 349 11,300 2,095 Climbing FlightAware ADS-B
Wed 02:47:38 PM 37.7948 -122.0380 70° East 320 368 12,400 2,459 Climbing FlightAware ADS-B
Wed 02:48:09 PM 37.8094 -121.9830 71° East 328 377 13,800 2,557 Climbing FlightAware ADS-B
Wed 02:48:39 PM 37.8240 -121.9280 71° East 337 388 15,000 1,967 Climbing FlightAware ADS-B
Wed 02:49:10 PM 37.8394 -121.8680 72° East 344 396 15,800 1,839 Climbing FlightAware ADS-B
Wed 02:49:41 PM 37.8555 -121.8040 72° East 369 425 16,900 2,129 Climbing FlightAware ADS-B
Wed 02:50:12 PM 37.8720 -121.7400 72° East 377 434 18,000 2,129 Climbing FlightAware ADS-B
Wed 02:50:43 PM 37.8891 -121.6740 72° East 383 441 19,100 2,031 Climbing FlightAware ADS-B
Wed 02:51:17 PM 37.9075 -121.6020 72° East 391 450 20,200 1,969 Climbing FlightAware ADS-B
Wed 02:51:47 PM 37.9246 -121.5340 72° East 397 457 21,200 2,344 Climbing FlightAware ADS-B
Wed 02:52:21 PM 37.9436 -121.4600 72° East 393 452 22,700 2,320 Climbing FlightAware ADS-B
Wed 02:53:02 PM 37.9660 -121.3730 72° East 394 453 24,100 2,073 Climbing FlightAware ADS-B
Wed 02:53:16 PM 37.9745 -121.3390 72° East 396 456 24,600 1,619 Climbing FlightAware ADS-B
Wed 02:54:05 PM 38.0010 -121.2340 72° East 405 466 25,800 1,535 Climbing FlightAware ADS-B
Wed 02:54:42 PM 38.0220 -121.1500 72° East 409 471 26,800 1,500 Climbing FlightAware ADS-B
Wed 02:55:21 PM 38.0450 -121.0610 72° East 417 480 27,700 1,403 Climbing FlightAware ADS-B
Wed 02:55:59 PM 38.0680 -120.9690 72° East 425 489 28,600 986 Climbing FlightAware ADS-B
Wed 02:56:34 PM 38.0850 -120.8840 76° East 444 511 28,900 618 Climbing FlightAware ADS-B
Wed 02:57:07 PM 38.0990 -120.8030 78° East 455 524 29,300 1,304 Climbing FlightAware ADS-B
Wed 02:57:43 PM 38.1150 -120.7080 78° East 448 516 30,400 1,397 Climbing FlightAware ADS-B
Wed 02:58:20 PM 38.1330 -120.6100 77° East 454 522 31,000 1,895 Climbing FlightAware ADS-B
Wed 02:58:21 PM 38.1338 -120.6056 77° East 455 524 31,600 1,500 Climbing FlightAware ADS-B
Wed 02:58:52 PM 38.1480 -120.5290 77° East 452 520 31,800 1,000 Climbing FlightAware ADS-B
Wed 02:59:27 PM 38.1650 -120.4360 77° East 450 518 32,700 1,233 Climbing FlightAware ADS-B
Wed 03:00:05 PM 38.1820 -120.3390 77° East 453 521 33,300 943 Climbing FlightAware ADS-B
Wed 03:00:37 PM 38.1970 -120.2580 77° East 455 524 33,800 1,154 Climbing FlightAware ADS-B
Wed 03:00:57 PM 38.2049 -120.2114 78° East 455 524 34,300 1,742 Climbing FlightAware ADS-B
Wed 03:01:39 PM 38.2248 -120.0990 77° East 438 504 35,600 1,814 Climbing FlightAware ADS-B
Wed 03:02:23 PM 38.2450 -119.9850 77° East 420 483 36,900 1,105 Climbing FlightAware ADS-B
Wed 03:02:55 PM 38.2580 -119.9110 77° East 429 494 37,000 88 Climbing FlightAware ADS-B
Wed 03:03:31 PM 38.2730 -119.8240 78° East 439 505 37,000  Level FlightAware ADS-B
Wed 03:04:09 PM 38.2900 -119.7250 78° East 447 514 37,000  Level FlightAware ADS-B
Wed 03:04:20 PM 38.2955 -119.6940 77° East 449 517 37,000  Level FlightAware ADS-B
Wed 03:04:59 PM 38.3129 -119.5930 78° East 451 519 37,000  Level FlightAware ADS-B
Wed 03:05:30 PM 38.3270 -119.5107 78° East 453 521 37,000  Level FlightAware ADS-B
Wed 03:06:00 PM 38.3400 -119.4320 78° East 454 522 37,000  Level FlightAware ADS-B
Wed 03:06:13 PM 38.3344 -119.4677 259° West 455 524 37,000  Level FlightAware ADS-B
Wed 03:06:49 PM 38.3614 -119.3084 78° East 455 524 37,000  Level FlightAware ADS-B
Wed 03:07:19 PM 38.3756 -119.2251 78° East 455 524 37,000  Level FlightAware ADS-B
Wed 03:08:06 PM 38.3961 -119.1037 78° East 456 525 37,000  Level FlightAware ADS-B
Wed 03:08:45 PM 38.4133 -118.9996 78° East 457 526 37,000  Level FlightAware ADS-B
Wed 03:09:16 PM 38.4258 -118.9232 78° East 458 527 37,000  Level FlightAware ADS-B
Wed 03:10:15 PM 38.4500 -118.7740 78° East 458 527 37,000  Level FlightAware ADS-B
Wed 03:10:46 PM 38.4650 -118.6820 78° East 460 529 37,000  Level FlightAware ADS-B
Wed 03:11:04 PM 38.4730 -118.6330 78° East 460 529 37,000  Level FlightAware ADS-B
Wed 03:11:54 PM 38.4950 -118.5000 78° East 461 531 37,000  Level FlightAware ADS-B
Wed 03:12:32 PM 38.5110 -118.3980 79° East 462 532 37,000  Level FlightAware ADS-B
Wed 03:13:04 PM 38.5250 -118.3130 78° East 462 532 37,000  Level FlightAware ADS-B
Wed 03:13:43 PM 38.5410 -118.2120 79° East 463 533 37,000  Level FlightAware ADS-B
Wed 03:14:19 PM 38.5560 -118.1150 79° East 464 534 37,000  Level FlightAware ADS-B
Wed 03:14:49 PM 38.5690 -118.0340 78° East 464 534 37,000  Level FlightAware ADS-B
Wed 03:15:29 PM 38.5840 -117.9430 78° East 464 534 37,000  Level FlightAware ADS-B
Wed 03:16:05 PM 38.5980 -117.8600 78° East 464 534 37,000  Level FlightAware ADS-B
Wed 03:16:41 PM 38.6110 -117.7780 79° East 464 534 37,000  Level FlightAware ADS-B
Wed 03:17:17 PM 38.6250 -117.6960 78° East 464 534 37,000  Level FlightAware ADS-B
Wed 03:17:53 PM 38.6390 -117.6140 78° East 464 534 37,000  Level FlightAware ADS-B
Wed 03:18:29 PM 38.6520 -117.5310 79° East 464 534 37,000  Level FlightAware ADS-B
Wed 03:19:05 PM 38.6660 -117.4490 78° East 464 534 37,000  Level FlightAware ADS-B
Wed 03:19:41 PM 38.6800 -117.3670 78° East 464 534 37,000  Level FlightAware ADS-B
Wed 03:20:17 PM 38.6930 -117.2840 79° East 464 534 37,000  Level FlightAware ADS-B
Wed 03:20:54 PM 38.7070 -117.2000 78° East 464 534 37,000  Level FlightAware ADS-B
Wed 03:21:30 PM 38.7210 -117.1170 78° East 464 534 37,000  Level FlightAware ADS-B
Wed 03:22:06 PM 38.7350 -117.0350 78° East 464 534 37,000  Level FlightAware ADS-B
Wed 03:22:42 PM 38.7480 -116.9530 78° East 464 534 37,000  Level FlightAware ADS-B
Wed 03:23:18 PM 38.7620 -116.8700 78° East 464 534 37,000  Level FlightAware ADS-B
Wed 03:23:55 PM 38.7760 -116.7860 78° East 464 534 37,000  Level FlightAware ADS-B
Wed 03:24:31 PM 38.7900 -116.7030 78° East 464 534 37,000  Level FlightAware ADS-B
Wed 03:25:02 PM 38.8233 -116.4092 78° East 463 533 37,000  Level Oakland Center
Wed 03:26:03 PM 38.8461 -116.2450 80° East 465 535 37,000  Level Oakland Center
Wed 03:27:05 PM 38.8692 -116.0692 80° East 467 537 37,000  Level Oakland Center
Wed 03:28:16 PM 38.8953 -115.8828 80° East 470 541 37,000  Level Salt Lake Center
Wed 03:29:18 PM 38.9217 -115.6844 80° East 468 539 37,000  Level Salt Lake Center
Wed 03:30:20 PM 38.9433 -115.5206 80° East 468 539 37,000  Level Salt Lake Center
Wed 03:31:22 PM 38.9658 -115.3536 80° East 469 540 37,000  Level Salt Lake Center
Wed 03:32:24 PM 38.9878 -115.1889 80° East 469 540 37,000  Level Salt Lake Center
Wed 03:33:26 PM 39.0094 -115.0250 80° East 467 537 37,000  Level Salt Lake Center
Wed 03:34:27 PM 39.0303 -114.8617 81° East 465 535 37,000  Level Salt Lake Center
Wed 03:40:12 PM 39.1450 -113.8830 81° East 474 545 37,000  Level FlightAware ADS-B
Wed 03:40:56 PM 39.1590 -113.7590 82° East 476 548 37,000  Level FlightAware ADS-B
Wed 03:41:32 PM 39.1710 -113.6590 81° East 477 549 37,000  Level FlightAware ADS-B
Wed 03:42:02 PM 39.1810 -113.5770 81° East 478 550 37,000  Level FlightAware ADS-B
Wed 03:42:36 PM 39.1920 -113.4820 81° East 479 551 37,000  Level FlightAware ADS-B
Wed 03:43:19 PM 39.2050 -113.3700 81° East 480 552 37,000  Level FlightAware ADS-B
Wed 03:43:55 PM 39.2160 -113.2830 81° East 480 552 37,000  Level FlightAware ADS-B
Wed 03:44:31 PM 39.2260 -113.1970 81° East 480 552 37,000  Level FlightAware ADS-B
Wed 03:45:07 PM 39.2370 -113.1100 81° East 480 552 37,000  Level FlightAware ADS-B
Wed 03:45:47 PM 39.2528 -112.9380 83° East 481 554 37,000  Level FlightAware ADS-B
Wed 03:46:17 PM 39.2623 -112.8520 82° East 482 555 37,000  Level FlightAware ADS-B
Wed 03:46:47 PM 39.2716 -112.7670 82° East 483 556 37,000  Level FlightAware ADS-B
Wed 03:47:21 PM 39.2818 -112.6710 82° East 483 556 37,000  Level FlightAware ADS-B
Wed 03:47:51 PM 39.2908 -112.5860 82° East 482 555 37,000  Level FlightAware ADS-B
Wed 03:47:59 PM 39.2938 -112.5620 81° East 484 557 37,000  Level FlightAware ADS-B
Wed 03:48:13 PM 39.3007 -112.5250 76° East 488 562 37,000  Level FlightAware ADS-B
Wed 03:48:22 PM 39.3077 -112.4980 71° East 490 564 37,000  Level FlightAware ADS-B
Wed 03:48:27 PM 39.3117 -112.4840 70° East 491 565 37,000  Level FlightAware ADS-B
Wed 03:49:04 PM 39.3479 -112.3870 64° Northeast 495 570 37,000  Level FlightAware ADS-B
Wed 03:49:37 PM 39.3783 -112.2980 66° East 493 567 37,000  Level FlightAware ADS-B
Wed 03:50:13 PM 39.4119 -112.2010 66° East 494 568 37,000  Level FlightAware ADS-B
Wed 03:50:44 PM 39.4415 -112.1190 65° Northeast 495 570 37,000  Level FlightAware ADS-B
Wed 03:51:14 PM 39.4718 -112.0370 64° Northeast 497 572 37,000  Level FlightAware ADS-B
Wed 03:51:45 PM 39.5018 -111.9550 65° Northeast 497 572 37,000  Level FlightAware ADS-B
Wed 03:52:19 PM 39.5357 -111.8630 64° Northeast 498 573 37,000  Level FlightAware ADS-B
Wed 03:52:49 PM 39.5656 -111.7810 65° Northeast 497 572 37,000  Level FlightAware ADS-B
Wed 03:53:25 PM 39.6005 -111.6850 65° Northeast 496 571 37,000  Level FlightAware ADS-B
Wed 03:53:56 PM 39.6299 -111.6030 65° Northeast 496 571 37,000  Level FlightAware ADS-B
Wed 03:54:26 PM 39.6590 -111.5230 65° Northeast 496 571 37,000  Level FlightAware ADS-B
Wed 03:54:56 PM 39.6881 -111.4410 65° Northeast 497 572 37,000  Level FlightAware ADS-B
Wed 03:55:29 PM 39.7203 -111.3510 65° Northeast 497 572 37,000  Level FlightAware ADS-B
Wed 03:56:00 PM 39.7497 -111.2680 65° Northeast 496 571 37,000  Level FlightAware ADS-B
Wed 03:56:03 PM 39.7512 -111.2636 66° East 496 571 37,000  Level FlightAware ADS-B
Wed 03:56:30 PM 39.7787 -111.1860 65° Northeast 494 568 37,000  Level FlightAware ADS-B
Wed 03:56:34 PM 39.7816 -111.1778 65° Northeast 494 568 37,000  Level FlightAware ADS-B
Wed 03:57:02 PM 39.8084 -111.1020 65° Northeast 493 567 37,000  Level FlightAware ADS-B
Wed 03:57:07 PM 39.8129 -111.0887 66° East 493 567 37,000  Level FlightAware ADS-B
Wed 03:57:35 PM 39.8403 -111.0110 65° Northeast 490 564 37,000  Level FlightAware ADS-B
Wed 03:57:37 PM 39.8397 -111.0127 245° Southwest 490 564 37,000  Level FlightAware ADS-B
Wed 03:58:05 PM 39.8686 -110.9310 65° Northeast 489 563 37,000  Level FlightAware ADS-B
Wed 03:58:08 PM 39.8705 -110.9252 67° East 489 563 37,000  Level FlightAware ADS-B
Wed 03:58:41 PM 39.8997 -110.8415 66° East 488 562 37,000  Level FlightAware ADS-B
Wed 03:59:05 PM 39.9239 -110.7720 66° East 487 560 37,000  Level FlightAware ADS-B
Wed 03:59:11 PM 39.9290 -110.7576 65° Northeast 492 566 37,000  Level FlightAware ADS-B
Wed 03:59:49 PM 39.9652 -110.6530 66° East 495 570 37,000  Level FlightAware ADS-B
Wed 04:00:19 PM 39.9928 -110.5738 65° Northeast 497 572 37,000  Level FlightAware ADS-B
Wed 04:00:49 PM 40.0210 -110.4915 66° East 500 575 37,000  Level FlightAware ADS-B
Wed 04:01:21 PM 40.0519 -110.4017 66° East 502 578 37,000  Level FlightAware ADS-B
Wed 04:01:51 PM 40.0786 -110.3241 66° East 501 577 37,000  Level FlightAware ADS-B
Wed 04:02:21 PM 40.1082 -110.2375 66° East 502 578 37,000  Level FlightAware ADS-B
Wed 04:03:02 PM 40.1440 -110.1238 68° East 502 578 37,000  Level FlightAware ADS-B
Wed 04:03:33 PM 40.1655 -110.0354 72° East 500 575 37,000  Level FlightAware ADS-B
Wed 04:04:07 PM 40.1879 -109.9353 74° East 499 574 37,000  Level FlightAware ADS-B
Wed 04:04:37 PM 40.2067 -109.8482 74° East 498 573 37,000  Level FlightAware ADS-B
Wed 04:05:07 PM 40.2259 -109.7609 74° East 496 571 37,000  Level FlightAware ADS-B
Wed 04:05:49 PM 40.2514 -109.6433 74° East 494 568 37,000  Level FlightAware ADS-B
Wed 04:06:22 PM 40.2715 -109.5505 74° East 493 567 37,000  Level FlightAware ADS-B
Wed 04:06:52 PM 40.2908 -109.4619 74° East 490 564 37,000  Level FlightAware ADS-B
Wed 04:07:24 PM 40.3108 -109.3690 74° East 489 563 37,000  Level FlightAware ADS-B
Wed 04:07:56 PM 40.3299 -109.2796 74° East 489 563 37,000  Level FlightAware ADS-B
Wed 04:08:27 PM 40.3489 -109.1907 74° East 489 563 37,000  Level FlightAware ADS-B
Wed 04:08:35 PM 40.1809 -109.9671 254° West 497 572 37,000  Level FlightAware ADS-B (KGUC)
Wed 04:09:09 PM 40.3747 -109.0700 74° East 489 563 37,000  Level FlightAware ADS-B
Wed 04:09:39 PM 40.3925 -108.9855 74° East 490 564 37,000  Level FlightAware ADS-B
Wed 04:10:11 PM 40.4106 -108.8994 75° East 490 564 37,000  Level FlightAware ADS-B
Wed 04:10:41 PM 40.4301 -108.8065 75° East 492 566 37,000  Level FlightAware ADS-B
Wed 04:11:12 PM 40.4482 -108.7191 75° East 492 566 37,000  Level FlightAware ADS-B
Wed 04:11:42 PM 40.4666 -108.6304 75° East 493 567 37,000  Level FlightAware ADS-B
Wed 04:12:12 PM 40.4841 -108.5463 75° East 494 568 37,000  Level FlightAware ADS-B
Wed 04:12:42 PM 40.5026 -108.4570 75° East 494 568 37,000  Level FlightAware ADS-B
Wed 04:13:21 PM 40.5256 -108.3442 75° East 496 571 37,000  Level FlightAware ADS-B
Wed 04:13:52 PM 40.5437 -108.2552 75° East 497 572 37,000  Level FlightAware ADS-B
Wed 04:14:24 PM 40.5621 -108.1653 75° East 496 571 37,000  Level FlightAware ADS-B
Wed 04:14:56 PM 40.5807 -108.0733 75° East 497 572 37,000  Level FlightAware ADS-B
Wed 04:15:27 PM 40.5995 -107.9801 75° East 497 572 37,000  Level FlightAware ADS-B
Wed 04:15:58 PM 40.6170 -107.8927 75° East 496 571 37,000  Level FlightAware ADS-B
Wed 04:16:28 PM 40.6355 -107.7997 75° East 498 573 37,000  Level FlightAware ADS-B
Wed 04:16:59 PM 40.6527 -107.7127 75° East 499 574 37,000  Level FlightAware ADS-B
Wed 04:17:29 PM 40.6705 -107.6229 75° East 499 574 37,000  Level FlightAware ADS-B
Wed 04:18:01 PM 40.6887 -107.5309 75° East 497 572 37,000  Level FlightAware ADS-B
Wed 04:18:31 PM 40.7069 -107.4385 75° East 497 572 37,000  Level FlightAware ADS-B
Wed 04:19:13 PM 40.7308 -107.3161 76° East 501 577 37,000  Level FlightAware ADS-B
Wed 04:20:13 PM 40.7650 -107.1410 75° East 501 577 37,000  Level FlightAware ADS-B
Wed 04:20:44 PM 40.7820 -107.0500 76° East 501 577 37,000  Level FlightAware ADS-B
Wed 04:21:24 PM 40.8050 -106.9320 76° East 502 578 37,000  Level FlightAware ADS-B
Wed 04:21:59 PM 40.8250 -106.8270 76° East 503 579 37,000  Level FlightAware ADS-B
Wed 04:22:32 PM 40.8430 -106.7290 76° East 504 580 37,000  Level FlightAware ADS-B
Wed 04:23:10 PM 40.8630 -106.6250 76° East 504 580 37,000  Level FlightAware ADS-B
Wed 04:23:45 PM 40.8840 -106.5120 76° East 503 579 37,000  Level FlightAware ADS-B
Wed 04:24:16 PM 40.9010 -106.4210 76° East 504 580 37,000  Level FlightAware ADS-B
Wed 04:24:53 PM 40.9220 -106.3080 76° East 505 581 37,000  Level FlightAware ADS-B
Wed 04:25:31 PM 40.9430 -106.1980 76° East 506 582 37,000  Level FlightAware ADS-B
Wed 04:26:05 PM 40.9610 -106.0980 77° East 505 581 37,000  Level FlightAware ADS-B
Wed 04:26:39 PM 40.9800 -105.9950 76° East 502 578 37,000  Level FlightAware ADS-B
Wed 04:27:13 PM 40.9980 -105.8930 77° East 501 577 37,000  Level FlightAware ADS-B
Wed 04:27:47 PM 41.0170 -105.7930 76° East 500 575 37,000  Level FlightAware ADS-B
Wed 04:28:23 PM 41.0350 -105.6890 77° East 500 575 37,000  Level FlightAware ADS-B
Wed 04:28:58 PM 41.0550 -105.5770 77° East 499 574 37,000  Level FlightAware ADS-B
Wed 04:29:36 PM 41.0760 -105.4610 76° East 498 573 37,000  Level FlightAware ADS-B
Wed 04:30:08 PM 41.0930 -105.3670 76° East 499 574 37,000  Level FlightAware ADS-B
Wed 04:30:44 PM 41.1110 -105.2610 77° East 501 577 37,000  Level FlightAware ADS-B
Wed 04:31:18 PM 41.1290 -105.1590 77° East 500 575 37,000  Level FlightAware ADS-B
Wed 04:31:53 PM 41.1470 -105.0580 77° East 502 578 37,000  Level FlightAware ADS-B
Wed 04:32:19 PM 41.1610 -104.9770 77° East 503 579 37,000  Level FlightAware ADS-B
Wed 04:32:55 PM 41.1790 -104.8730 77° East 505 581 37,000  Level FlightAware ADS-B
Wed 04:33:32 PM 41.2020 -104.7570 75° East 511 588 37,000  Level FlightAware ADS-B
Wed 04:34:09 PM 41.2270 -104.6450 73° East 513 590 37,000  Level FlightAware ADS-B
Wed 04:34:41 PM 41.2500 -104.5480 72° East 514 592 37,000  Level FlightAware ADS-B
Wed 04:35:18 PM 41.2760 -104.4390 72° East 515 593 37,000  Level FlightAware ADS-B
Wed 04:35:54 PM 41.3010 -104.3310 73° East 517 595 37,000  Level FlightAware ADS-B
Wed 04:36:30 PM 41.3270 -104.2200 73° East 516 594 37,000  Level FlightAware ADS-B
Wed 04:37:03 PM 41.3510 -104.1190 72° East 516 594 37,000  Level FlightAware ADS-B
Wed 04:37:36 PM 41.3730 -104.0210 73° East 516 594 37,000  Level FlightAware ADS-B
Wed 04:38:15 PM 41.4000 -103.9040 73° East 516 594 37,000  Level FlightAware ADS-B
Wed 04:38:46 PM 41.4230 -103.8060 73° East 517 595 37,000  Level FlightAware ADS-B
Wed 04:39:19 PM 41.4460 -103.7050 73° East 517 595 37,000  Level FlightAware ADS-B
Wed 04:39:54 PM 41.4680 -103.6060 73° East 516 594 37,000  Level FlightAware ADS-B
Wed 04:40:33 PM 41.4960 -103.4840 73° East 516 594 37,000  Level FlightAware ADS-B
Wed 04:41:10 PM 41.5210 -103.3720 73° East 516 594 37,000  Level FlightAware ADS-B
Wed 04:41:42 PM 41.5430 -103.2720 74° East 518 596 37,000  Level FlightAware ADS-B
Wed 04:42:18 PM 41.5680 -103.1630 73° East 518 596 37,000  Level FlightAware ADS-B
Wed 04:42:51 PM 41.5910 -103.0580 74° East 517 595 37,000  Level FlightAware ADS-B
Wed 04:43:28 PM 41.6130 -102.9620 73° East 517 595 37,000  Level FlightAware ADS-B
Wed 04:44:07 PM 41.6360 -102.8600 73° East 517 595 37,000  Level FlightAware ADS-B
Wed 04:44:41 PM 41.6560 -102.7720 73° East 517 595 37,000  Level FlightAware ADS-B
Wed 04:45:13 PM 41.6860 -102.6270 74° East 517 595 37,000  Level FlightAware ADS-B
Wed 04:45:50 PM 41.7080 -102.5310 73° East 517 595 37,000  Level FlightAware ADS-B
Wed 04:46:28 PM 41.7300 -102.4320 73° East 517 595 37,000  Level FlightAware ADS-B
Wed 04:47:24 PM 41.7700 -102.2390 74° East 515 593 37,000  Level FlightAware ADS-B
Wed 04:48:10 PM 41.7950 -102.1190 74° East 515 593 37,000  Level FlightAware ADS-B
Wed 04:48:46 PM 41.8150 -102.0250 74° East 515 593 37,000  Level FlightAware ADS-B
Wed 04:49:22 PM 41.8350 -101.9310 74° East 515 593 37,000  Level FlightAware ADS-B
Wed 04:49:56 PM 41.8540 -101.8420 74° East 515 593 37,000  Level FlightAware ADS-B
Wed 04:50:33 PM 41.8750 -101.7450 74° East 515 593 37,000  Level FlightAware ADS-B
Wed 04:51:10 PM 41.8960 -101.6480 74° East 515 593 37,000  Level FlightAware ADS-B
Wed 04:51:46 PM 41.9160 -101.5540 74° East 515 593 37,000  Level FlightAware ADS-B
Wed 04:52:22 PM 41.9360 -101.4600 74° East 515 593 37,000  Level FlightAware ADS-B
Wed 04:52:58 PM 41.9560 -101.3660 74° East 515 593 37,000  Level FlightAware ADS-B
Wed 04:53:34 PM 41.9760 -101.2720 74° East 515 593 37,000  Level FlightAware ADS-B
Wed 04:54:10 PM 41.9960 -101.1770 74° East 515 593 37,000  Level FlightAware ADS-B
Wed 04:54:46 PM 42.0160 -101.0830 74° East 515 593 37,000  Level FlightAware ADS-B
Wed 04:55:20 PM 42.0350 -100.9940 74° East 515 593 37,000  Level FlightAware ADS-B
Wed 04:56:06 PM 42.0610 -100.8730 74° East 515 593 37,000  Level FlightAware ADS-B
Wed 04:56:43 PM 42.0810 -100.7760 74° East 515 593 37,000  Level FlightAware ADS-B
Wed 05:01:53 PM 42.3104 -99.5486 75° East 515 593 37,000  Level FlightAware ADS-B
Wed 05:02:26 PM 42.3298 -99.4444 76° East 514 592 37,000  Level FlightAware ADS-B
Wed 05:03:33 PM 42.3678 -99.2398 76° East 513 590 37,000  Level FlightAware ADS-B
Wed 05:06:00 PM 42.4508 -98.7854 76° East 512 589 37,000  Level FlightAware ADS-B
Wed 05:06:28 PM 42.4649 -98.6927 78° East 509 586 37,000  Level FlightAware ADS-B
Wed 05:06:59 PM 42.4744 -98.6192 78° East 509 586 37,000  Level Minneapolis Center
Wed 05:08:01 PM 42.4844 -98.4281 86° East 507 583 37,000  Level Minneapolis Center
Wed 05:09:03 PM 42.4928 -98.2378 87° East 506 582 37,000  Level Minneapolis Center
Wed 05:15:05 PM 42.5430 -97.0680 87° East 503 579 37,000  Level FlightAware ADS-B
Wed 05:15:38 PM 42.5468 -96.9604 87° East 505 581 37,000  Level FlightAware ADS-B
Wed 05:16:14 PM 42.5500 -96.8630 87° East 504 580 37,000  Level FlightAware ADS-B
Wed 05:16:29 PM 42.5507 -96.8540 84° East 505 581 37,000  Level FlightAware ADS-B
Wed 05:17:25 PM 42.5590 -96.6240 87° East 505 581 37,000  Level FlightAware ADS-B
Wed 05:17:37 PM 42.5564 -96.6937 267° West 506 582 37,000  Level FlightAware ADS-B
Wed 05:18:36 PM 42.5660 -96.3990 87° East 503 579 37,000  Level FlightAware ADS-B
Wed 05:19:22 PM 42.5703 -96.2662 87° East 500 575 37,000  Level FlightAware ADS-B
Wed 05:19:54 PM 42.5740 -96.1570 87° East 498 573 37,000  Level FlightAware ADS-B
Wed 05:20:30 PM 42.5770 -96.0440 88° East 496 571 37,000  Level FlightAware ADS-B
Wed 05:21:02 PM 42.5800 -95.9480 88° East 495 570 37,000  Level FlightAware ADS-B
Wed 05:21:35 PM 42.5825 -95.8472 88° East 493 567 37,000  Level FlightAware ADS-B
Wed 05:22:12 PM 42.5850 -95.7400 88° East 493 567 37,000  Level FlightAware ADS-B
Wed 05:22:47 PM 42.5880 -95.6240 88° East 492 566 37,000  Level FlightAware ADS-B
Wed 05:23:13 PM 42.5901 -95.5432 88° East 491 565 37,000  Level FlightAware ADS-B
Wed 05:23:59 PM 42.5930 -95.4010 88° East 490 564 37,000  Level FlightAware ADS-B
Wed 05:24:31 PM 42.5950 -95.3030 88° East 490 564 37,000  Level FlightAware ADS-B
Wed 05:25:07 PM 42.5980 -95.1920 88° East 489 563 37,000  Level FlightAware ADS-B
Wed 05:25:41 PM 42.6000 -95.0880 88° East 488 562 37,000  Level FlightAware ADS-B
Wed 05:25:52 PM 42.6005 -95.0550 89° East 488 562 37,000  Level FlightAware ADS-B (LPVM)
Wed 05:26:26 PM 42.6022 -94.9631 89° East 488 562 37,000  Level FlightAware ADS-B (LPVM)
Wed 05:27:27 PM 42.6050 -94.7650 89° East 487 560 37,000  Level FlightAware ADS-B
Wed 05:27:38 PM 42.6060 -94.7413 87° East 487 560 37,000  Level FlightAware ADS-B (LPVM)
Wed 05:28:36 PM 42.6090 -94.5530 89° East 486 559 37,000  Level FlightAware ADS-B
Wed 05:29:08 PM 42.6102 -94.4572 89° East 485 558 37,000  Level FlightAware ADS-B
Wed 05:29:25 PM 42.6108 -94.4057 89° East 485 558 37,000  Level FlightAware ADS-B (LPVM)
Wed 05:29:32 PM 42.6105 -94.4227 268° West 485 558 37,000  Level FlightAware ADS-B
Wed 05:30:25 PM 42.6130 -94.2260 89° East 484 557 37,000  Level FlightAware ADS-B
Wed 05:30:37 PM 42.6122 -94.2859 269° West 484 557 37,000  Level FlightAware ADS-B
Wed 05:31:01 PM 42.6135 -94.1123 89° East 483 556 37,000  Level FlightAware ADS-B (LPVM)
Wed 05:31:16 PM 42.6137 -94.0678 90° East 483 556 37,000  Level FlightAware ADS-B
Wed 05:31:32 PM 42.6141 -94.0187 89° East 483 556 37,000  Level FlightAware ADS-B (LPVM)
Wed 05:32:09 PM 42.6150 -93.9090 89° East 482 555 37,000  Level FlightAware ADS-B
Wed 05:32:33 PM 42.6150 -93.8759 90° East 483 556 37,000  Level FlightAware ADS-B
Wed 05:32:38 PM 42.6151 -93.8207 90° East 482 555 37,000  Level FlightAware ADS-B (LPVM)
Wed 05:33:17 PM 42.6160 -93.7040 89° East 482 555 37,000  Level FlightAware ADS-B
Wed 05:33:52 PM 42.6160 -93.5970 90° East 482 555 37,000  Level FlightAware ADS-B
Wed 05:34:09 PM 42.6162 -93.5472 90° East 482 555 37,000  Level FlightAware ADS-B (LPVM)
Wed 05:34:39 PM 42.6162 -93.4803 90° East 481 554 37,000  Level FlightAware ADS-B (LPVM)
Wed 05:35:11 PM 42.6160 -93.3630 90° East 481 554 37,000  Level FlightAware ADS-B
Wed 05:35:44 PM 42.6160 -93.2590 90° East 481 554 37,000  Level FlightAware ADS-B
Wed 05:36:10 PM 42.6162 -93.1820 90° East 481 554 37,000  Level FlightAware ADS-B (LPVM)
Wed 05:36:42 PM 42.6160 -93.0851 90° East 481 554 37,000  Level FlightAware ADS-B (LPVM)
Wed 05:37:27 PM 42.6156 -92.9496 90° East 480 552 37,000  Level FlightAware ADS-B (LPVM)
Wed 05:37:59 PM 42.6153 -92.8526 90° East 480 552 37,000  Level FlightAware ADS-B (LPVM)
Wed 05:38:40 PM 42.6150 -92.7320 90° East 479 551 37,000  Level FlightAware ADS-B
Wed 05:38:49 PM 42.6144 -92.7027 92° East 479 551 37,000  Level FlightAware ADS-B (LPVM)
Wed 05:39:47 PM 42.6134 -92.5395 90° East 478 550 37,000  Level FlightAware ADS-B (LPVM)
Wed 05:40:24 PM 42.6130 -92.4210 90° East 479 551 37,000  Level FlightAware ADS-B
Wed 05:40:47 PM 42.6120 -92.3636 91° East 479 551 37,000  Level FlightAware ADS-B (LPVM)
Wed 05:41:37 PM 42.6100 -92.2000 91° East 479 551 37,000  Level FlightAware ADS-B
Wed 05:41:49 PM 42.6101 -92.1651 90° East 479 551 37,000  Level FlightAware ADS-B (LPVM)
Wed 05:42:26 PM 42.6089 -92.0544 91° East 479 551 37,000  Level FlightAware ADS-B (LPVM)
Wed 05:42:59 PM 42.6079 -91.9545 91° East 478 550 37,000  Level FlightAware ADS-B (LPVM)
Wed 05:43:29 PM 42.6067 -91.8647 91° East 478 550 37,000  Level FlightAware ADS-B (LPVM)
Wed 05:43:59 PM 42.6055 -91.7742 91° East 477 549 37,000  Level FlightAware ADS-B (LPVM)
Wed 05:44:32 PM 42.6040 -91.6810 91° East 477 549 37,000  Level FlightAware ADS-B
Wed 05:44:38 PM 42.6041 -91.6783 87° East 477 549 37,000  Level FlightAware ADS-B (LPVM)
Wed 05:45:09 PM 42.6024 -91.5677 91° East 477 549 37,000  Level FlightAware ADS-B (LPVM)
Wed 05:45:39 PM 42.6008 -91.4764 91° East 476 548 37,000  Level FlightAware ADS-B (LPVM)
Wed 05:46:15 PM 42.5990 -91.3700 91° East 477 549 37,000  Level FlightAware ADS-B
Wed 05:46:48 PM 42.5981 -91.3058 91° East 477 549 37,000  Level FlightAware ADS-B (LPVM)
Wed 05:47:28 PM 42.5950 -91.1520 92° East 477 549 37,000  Level FlightAware ADS-B
Wed 05:48:00 PM 42.5930 -91.0600 92° East 476 548 37,000  Level FlightAware ADS-B
Wed 05:48:30 PM 42.5916 -90.9674 91° East 476 548 37,000  Level FlightAware ADS-B (LPVM)
Wed 05:49:12 PM 42.5890 -90.8440 92° East 475 547 37,000  Level FlightAware ADS-B
Wed 05:49:33 PM 42.5874 -90.7798 92° East 474 545 37,000  Level FlightAware ADS-B (LPVM)
Wed 05:50:27 PM 42.5840 -90.6210 92° East 473 544 37,000  Level FlightAware ADS-B
Wed 05:51:04 PM 42.5810 -90.5130 92° East 472 543 37,000  Level FlightAware ADS-B
Wed 05:51:40 PM 42.5790 -90.4070 91° East 471 542 37,000  Level FlightAware ADS-B
Wed 05:52:13 PM 42.5760 -90.3080 92° East 471 542 37,000  Level FlightAware ADS-B
Wed 05:52:50 PM 42.5740 -90.2070 92° East 471 542 37,000  Level FlightAware ADS-B
Wed 05:53:22 PM 42.5710 -90.1080 92° East 470 541 37,000  Level FlightAware ADS-B
Wed 05:53:59 PM 42.5680 -89.9980 92° East 470 541 37,000  Level FlightAware ADS-B
Wed 05:54:34 PM 42.5650 -89.8960 92° East 470 541 37,000  Level FlightAware ADS-B
Wed 05:55:08 PM 42.5620 -89.7970 92° East 469 540 37,000  Level FlightAware ADS-B
Wed 05:55:45 PM 42.5580 -89.6860 93° East 469 540 37,000  Level FlightAware ADS-B
Wed 05:56:16 PM 42.5560 -89.6000 92° East 468 539 37,000  Level FlightAware ADS-B
Wed 05:56:53 PM 42.5520 -89.4910 93° East 468 539 37,000  Level FlightAware ADS-B
Wed 05:57:27 PM 42.5490 -89.3890 92° East 467 537 37,000  Level FlightAware ADS-B
Wed 05:58:02 PM 42.5450 -89.2870 93° East 467 537 37,000  Level FlightAware ADS-B
Wed 05:58:36 PM 42.5420 -89.1880 92° East 467 537 37,000  Level FlightAware ADS-B
Wed 05:59:12 PM 42.5390 -89.0870 92° East 466 536 37,000  Level FlightAware ADS-B
Wed 05:59:45 PM 42.5350 -88.9850 93° East 466 536 37,000  Level FlightAware ADS-B
Wed 06:00:23 PM 42.5310 -88.8770 93° East 466 536 37,000  Level FlightAware ADS-B
Wed 06:01:00 PM 42.5270 -88.7660 93° East 465 535 37,000  Level FlightAware ADS-B
Wed 06:01:31 PM 42.5230 -88.6830 94° East 464 534 37,000  Level FlightAware ADS-B
Wed 06:02:06 PM 42.5190 -88.5730 93° East 463 533 37,000  Level FlightAware ADS-B
Wed 06:02:44 PM 42.5150 -88.4650 93° East 462 532 37,000  Level FlightAware ADS-B
Wed 06:03:15 PM 42.5110 -88.3760 93° East 461 531 37,000  Level FlightAware ADS-B
Wed 06:03:53 PM 42.5070 -88.2680 93° East 459 528 37,000  Level FlightAware ADS-B
Wed 06:04:29 PM 42.5020 -88.1640 94° East 457 526 37,000  Level FlightAware ADS-B
Wed 06:05:03 PM 42.4990 -88.0720 93° East 457 526 37,000  Level FlightAware ADS-B
Wed 06:05:34 PM 42.4960 -87.9770 92° East 456 525 37,000  Level FlightAware ADS-B
Wed 06:06:12 PM 42.4960 -87.8730 90° East 455 524 37,000  Level FlightAware ADS-B
Wed 06:06:48 PM 42.4960 -87.7680 90° East 454 522 37,000  Level FlightAware ADS-B
Wed 06:07:24 PM 42.4960 -87.6650 90° East 453 521 37,000  Level FlightAware ADS-B
Wed 06:08:10 PM 42.4960 -87.5360 90° East 451 519 37,000  Level FlightAware ADS-B
Wed 06:08:55 PM 42.4960 -87.4090 90° East 451 519 37,000  Level FlightAware ADS-B
Wed 06:09:28 PM 42.4950 -87.3220 91° East 451 519 37,000  Level FlightAware ADS-B
Wed 06:10:04 PM 42.4950 -87.2220 90° East 451 519 37,000  Level FlightAware ADS-B
Wed 06:10:36 PM 42.4940 -87.1290 91° East 450 518 37,000  Level FlightAware ADS-B
Wed 06:11:20 PM 42.4940 -87.0420 90° East 450 518 37,000  Level FlightAware ADS-B
Wed 06:11:57 PM 42.4930 -86.9010 91° East 449 517 37,000  Level FlightAware ADS-B
Wed 06:12:28 PM 42.4920 -86.8130 91° East 449 517 37,000  Level FlightAware ADS-B
Wed 06:13:05 PM 42.4910 -86.7090 91° East 449 517 37,000  Level FlightAware ADS-B
Wed 06:13:39 PM 42.4910 -86.6150 90° East 449 517 37,000  Level FlightAware ADS-B
Wed 06:14:17 PM 42.4900 -86.5050 91° East 451 519 37,000  Level FlightAware ADS-B
Wed 06:14:50 PM 42.4890 -86.4130 91° East 451 519 37,000  Level FlightAware ADS-B
Wed 06:15:27 PM 42.4870 -86.3080 91° East 453 521 37,000  Level FlightAware ADS-B
Wed 06:15:58 PM 42.4860 -86.2230 91° East 454 522 37,000  Level FlightAware ADS-B
Wed 06:16:34 PM 42.4850 -86.1170 91° East 455 524 37,000  Level FlightAware ADS-B
Wed 06:17:11 PM 42.4830 -86.0120 91° East 456 525 37,000  Level FlightAware ADS-B
Wed 06:17:44 PM 42.4820 -85.9170 91° East 457 526 37,000  Level FlightAware ADS-B
Wed 06:18:19 PM 42.4800 -85.8190 92° East 458 527 37,000  Level FlightAware ADS-B
Wed 06:19:02 PM 42.4780 -85.6930 91° East 459 528 37,000  Level FlightAware ADS-B
Wed 06:19:39 PM 42.4770 -85.5860 91° East 459 528 37,000  Level FlightAware ADS-B
Wed 06:20:11 PM 42.4750 -85.4950 92° East 459 528 37,000  Level FlightAware ADS-B
Wed 06:20:48 PM 42.4730 -85.3900 91° East 459 528 37,000  Level FlightAware ADS-B
Wed 06:21:29 PM 42.4710 -85.2760 91° East 459 528 37,000  Level FlightAware ADS-B
Wed 06:22:02 PM 42.4690 -85.1810 92° East 459 528 37,000  Level FlightAware ADS-B
Wed 06:22:40 PM 42.4660 -85.0750 92° East 459 528 37,000  Level FlightAware ADS-B
Wed 06:23:16 PM 42.4640 -84.9630 91° East 459 528 37,000  Level FlightAware ADS-B
Wed 06:23:51 PM 42.4610 -84.8650 92° East 458 527 37,000  Level FlightAware ADS-B
Wed 06:24:21 PM 42.4590 -84.7770 92° East 458 527 37,000  Level FlightAware ADS-B
Wed 06:25:00 PM 42.4560 -84.6680 92° East 459 528 37,000  Level FlightAware ADS-B
Wed 06:25:37 PM 42.4540 -84.5660 91° East 460 529 37,000  Level FlightAware ADS-B
Wed 06:26:10 PM 42.4510 -84.4660 92° East 461 531 37,000  Level FlightAware ADS-B
Wed 06:26:45 PM 42.4480 -84.3650 92° East 461 531 37,000  Level FlightAware ADS-B
Wed 06:27:19 PM 42.4450 -84.2660 92° East 461 531 37,000  Level FlightAware ADS-B
Wed 06:27:56 PM 42.4420 -84.1660 92° East 462 532 37,000  Level FlightAware ADS-B
Wed 06:28:28 PM 42.4390 -84.0680 92° East 462 532 37,000  Level FlightAware ADS-B
Wed 06:28:59 PM 42.4370 -83.9800 92° East 462 532 37,000  Level FlightAware ADS-B
Wed 06:29:42 PM 42.4330 -83.8540 92° East 463 533 37,000  Level FlightAware ADS-B
Wed 06:30:14 PM 42.4300 -83.7630 93° East 463 533 37,000  Level FlightAware ADS-B
Wed 06:30:50 PM 42.4260 -83.6570 93° East 463 533 37,000  Level FlightAware ADS-B
Wed 06:31:26 PM 42.4220 -83.5580 93° East 463 533 37,000  Level FlightAware ADS-B
Wed 06:32:02 PM 42.4180 -83.4500 93° East 463 533 37,000  Level FlightAware ADS-B
Wed 06:32:34 PM 42.4150 -83.3560 92° East 462 532 37,000  Level FlightAware ADS-B
Wed 06:33:10 PM 42.4110 -83.2550 93° East 462 532 37,000  Level FlightAware ADS-B
Wed 06:33:46 PM 42.4070 -83.1500 93° East 462 532 37,000  Level FlightAware ADS-B
Wed 06:34:18 PM 42.4030 -83.0610 93° East 461 531 37,000  Level FlightAware ADS-B
Wed 06:34:56 PM 42.3990 -82.9520 93° East 461 531 37,000  Level FlightAware ADS-B
Wed 06:35:29 PM 42.3950 -82.8560 93° East 461 531 37,000  Level FlightAware ADS-B
Wed 06:36:05 PM 42.3900 -82.7490 94° East 461 531 37,000  Level FlightAware ADS-B
Wed 06:36:39 PM 42.3860 -82.6530 93° East 462 532 37,000  Level FlightAware ADS-B
Wed 06:37:15 PM 42.3830 -82.5490 92° East 463 533 37,000  Level FlightAware ADS-B
Wed 06:37:49 PM 42.3790 -82.4520 93° East 463 533 37,000  Level FlightAware ADS-B
Wed 06:38:26 PM 42.3760 -82.3480 92° East 464 534 37,000  Level FlightAware ADS-B
Wed 06:38:59 PM 42.3720 -82.2490 93° East 465 535 37,000  Level FlightAware ADS-B
Wed 06:39:35 PM 42.3670 -82.1440 94° East 465 535 37,000  Level FlightAware ADS-B
Wed 06:40:11 PM 42.3630 -82.0420 93° East 464 534 37,000  Level FlightAware ADS-B
Wed 06:40:44 PM 42.3590 -81.9450 93° East 463 533 37,000  Level FlightAware ADS-B
Wed 06:41:19 PM 42.3550 -81.8420 93° East 463 533 37,000  Level FlightAware ADS-B
Wed 06:41:51 PM 42.3510 -81.7500 93° East 462 532 37,000  Level FlightAware ADS-B
Wed 06:42:28 PM 42.3460 -81.6430 94° East 461 531 37,000  Level FlightAware ADS-B
Wed 06:43:05 PM 42.3410 -81.5380 94° East 459 528 37,000  Level FlightAware ADS-B
Wed 06:43:39 PM 42.3370 -81.4400 93° East 457 526 37,000  Level FlightAware ADS-B
Wed 06:44:14 PM 42.3320 -81.3400 94° East 456 525 37,000  Level FlightAware ADS-B
Wed 06:44:49 PM 42.3280 -81.2430 93° East 455 524 37,000  Level FlightAware ADS-B
Wed 06:45:22 PM 42.3230 -81.1500 94° East 455 524 37,000  Level FlightAware ADS-B
Wed 06:45:53 PM 42.3190 -81.0610 93° East 455 524 37,000  Level FlightAware ADS-B
Wed 06:46:25 PM 42.3140 -80.9730 94° East 456 525 37,000  Level FlightAware ADS-B
Wed 06:47:05 PM 42.3080 -80.8560 94° East 456 525 37,000  Level FlightAware ADS-B
Wed 06:47:40 PM 42.3030 -80.7570 94° East 457 526 37,000  Level FlightAware ADS-B
Wed 06:48:13 PM 42.2980 -80.6650 94° East 459 528 37,000  Level FlightAware ADS-B
Wed 06:48:48 PM 42.2930 -80.5610 94° East 462 532 37,000  Level FlightAware ADS-B
Wed 06:49:25 PM 42.2870 -80.4570 94° East 464 534 37,000  Level FlightAware ADS-B
Wed 06:50:00 PM 42.2810 -80.3550 95° East 466 536 37,000  Level FlightAware ADS-B
Wed 06:50:33 PM 42.2760 -80.2600 94° East 467 537 37,000  Level FlightAware ADS-B
Wed 06:51:09 PM 42.2700 -80.1570 94° East 467 537 37,000  Level FlightAware ADS-B
Wed 06:51:46 PM 42.2630 -80.0480 95° East 468 539 37,000  Level FlightAware ADS-B
Wed 06:52:18 PM 42.2580 -79.9540 94° East 468 539 37,000  Level FlightAware ADS-B
Wed 06:52:53 PM 42.2510 -79.8550 95° East 467 537 37,000  Level FlightAware ADS-B
Wed 06:53:30 PM 42.2450 -79.7460 94° East 467 537 37,000  Level FlightAware ADS-B
Wed 06:54:05 PM 42.2380 -79.6440 95° East 466 536 37,000  Level FlightAware ADS-B
Wed 06:54:37 PM 42.2330 -79.5530 94° East 466 536 37,000  Level FlightAware ADS-B
Wed 06:55:14 PM 42.2260 -79.4470 95° East 466 536 37,000  Level FlightAware ADS-B
Wed 06:55:51 PM 42.2190 -79.3400 95° East 466 536 37,000  Level FlightAware ADS-B
Wed 06:56:23 PM 42.2130 -79.2480 95° East 466 536 37,000  Level FlightAware ADS-B
Wed 06:57:07 PM 42.2000 -79.1240 98° East 460 529 37,000  Level FlightAware ADS-B
Wed 06:57:43 PM 42.1780 -79.0250 107° East 455 524 37,000  Level FlightAware ADS-B
Wed 06:58:15 PM 42.1560 -78.9350 108° East 455 524 37,000  Level FlightAware ADS-B
Wed 06:58:49 PM 42.1330 -78.8470 109° East 455 524 37,000  Level FlightAware ADS-B
Wed 06:59:27 PM 42.1070 -78.7450 109° East 455 524 37,000  Level FlightAware ADS-B
Wed 07:00:03 PM 42.0830 -78.6470 108° East 455 524 37,000  Level FlightAware ADS-B
Wed 07:00:35 PM 42.0610 -78.5620 109° East 454 522 37,000  Level FlightAware ADS-B
Wed 07:01:13 PM 42.0360 -78.4650 109° East 453 521 37,000  Level FlightAware ADS-B
Wed 07:01:45 PM 42.0140 -78.3770 109° East 453 521 37,000  Level FlightAware ADS-B
Wed 07:02:21 PM 41.9890 -78.2800 109° East 452 520 37,000  Level FlightAware ADS-B
Wed 07:02:55 PM 41.9660 -78.1920 109° East 453 521 37,000  Level FlightAware ADS-B
Wed 07:03:27 PM 41.9430 -78.1050 110° East 453 521 37,000  Level FlightAware ADS-B
Wed 07:04:06 PM 41.9170 -78.0030 109° East 453 521 37,000  Level FlightAware ADS-B
Wed 07:04:41 PM 41.8930 -77.9100 109° East 452 520 37,000  Level FlightAware ADS-B
Wed 07:05:18 PM 41.8670 -77.8120 110° East 453 521 37,000  Level FlightAware ADS-B
Wed 07:05:51 PM 41.8430 -77.7230 110° East 454 522 37,000  Level FlightAware ADS-B
Wed 07:06:27 PM 41.8180 -77.6280 109° East 455 524 37,000  Level FlightAware ADS-B
Wed 07:07:03 PM 41.7930 -77.5310 109° East 455 524 37,000  Level FlightAware ADS-B
Wed 07:07:35 PM 41.7700 -77.4470 110° East 456 525 37,000  Level FlightAware ADS-B
Wed 07:08:11 PM 41.7460 -77.3560 109° East 456 525 37,000  Level FlightAware ADS-B
Wed 07:08:47 PM 41.7190 -77.2560 110° East 458 527 37,000  Level FlightAware ADS-B
Wed 07:09:23 PM 41.6930 -77.1620 110° East 458 527 37,000  Level FlightAware ADS-B
Wed 07:09:55 PM 41.6710 -77.0790 110° East 459 528 37,000  Level FlightAware ADS-B
Wed 07:10:33 PM 41.6420 -76.9740 110° East 459 528 37,000  Level FlightAware ADS-B
Wed 07:10:59 PM 41.6240 -76.9060 109° East 459 528 37,000  Level FlightAware ADS-B
Wed 07:11:36 PM 41.6010 -76.8220 110° East 459 528 37,000  Level FlightAware ADS-B
Wed 07:12:16 PM 41.5710 -76.7130 110° East 459 528 37,000  Level FlightAware ADS-B
Wed 07:12:51 PM 41.5460 -76.6220 110° East 459 528 37,000  Level FlightAware ADS-B
Wed 07:13:31 PM 41.5140 -76.5060 110° East 459 528 37,000  Level FlightAware ADS-B
Wed 07:14:16 PM 41.4820 -76.3890 110° East 459 528 37,000  Level FlightAware ADS-B
Wed 07:14:48 PM 41.4560 -76.2980 111° Southeast 458 527 37,000 -92 Level FlightAware ADS-B
Wed 07:15:21 PM 41.4310 -76.2100 111° Southeast 457 526 36,900 -563 Descending FlightAware ADS-B
Wed 07:15:52 PM 41.4090 -76.1310 110° East 458 527 36,400 -1,075 Descending FlightAware ADS-B
Wed 07:16:28 PM 41.3830 -76.0370 110° East 460 529 35,700 -1,479 Descending FlightAware ADS-B
Wed 07:17:05 PM 41.3540 -75.9370 111° Southeast 462 532 34,600 -2,333 Descending FlightAware ADS-B
Wed 07:17:40 PM 41.3280 -75.8450 111° Southeast 465 535 32,900 -2,955 Descending FlightAware ADS-B
Wed 07:18:12 PM 41.3040 -75.7600 111° Southeast 468 539 31,300 -3,313 Descending FlightAware ADS-B
Wed 07:18:47 PM 41.2750 -75.6650 112° Southeast 470 541 29,200 -3,583 Descending FlightAware ADS-B
Wed 07:19:24 PM 41.2420 -75.5660 114° Southeast 472 543 27,000 -3,296 Descending FlightAware ADS-B
Wed 07:19:58 PM 41.2120 -75.4760 114° Southeast 464 534 25,300 -2,870 Descending FlightAware ADS-B
Wed 07:20:33 PM 41.1820 -75.3880 114° Southeast 455 524 23,700 -1,886 Descending FlightAware ADS-B
Wed 07:21:08 PM 41.1530 -75.3020 114° Southeast 445 512 23,100 -583 Descending FlightAware ADS-B
Wed 07:21:45 PM 41.1220 -75.2100 114° Southeast 440 506 23,000 -86 Descending FlightAware ADS-B
Wed 07:22:18 PM 41.0940 -75.1270 114° Southeast 437 503 23,000  Level FlightAware ADS-B
Wed 07:22:49 PM 41.0690 -75.0540 114° Southeast 438 504 23,000  Level FlightAware ADS-B
Wed 07:23:29 PM 41.0350 -74.9570 115° Southeast 433 498 23,000 -800 Level FlightAware ADS-B
Wed 07:24:04 PM 41.0110 -74.8670 109° East 423 487 22,000 -2,261 Descending FlightAware ADS-B
Wed 07:24:38 PM 41.0000 -74.7800 99° East 417 480 20,400 -2,314 Descending FlightAware ADS-B
Wed 07:25:14 PM 40.9910 -74.6930 98° East 398 458 19,300 -1,183 Descending FlightAware ADS-B
Wed 07:25:49 PM 40.9820 -74.6080 98° East 391 450 19,000 -261 Descending FlightAware ADS-B
Wed 07:26:23 PM 40.9730 -74.5290 99° East 392 451 19,000  Level FlightAware ADS-B
Wed 07:26:58 PM 40.9640 -74.4450 98° East 392 451 19,000  Level FlightAware ADS-B
Wed 07:27:25 PM 40.9568 -74.3797 98° East 391 450 19,000  Level FlightAware ADS-B
Wed 07:28:07 PM 40.9430 -74.2840 101° East 391 450 19,000  Level FlightAware ADS-B
Wed 07:28:16 PM 40.9382 -74.2617 106° East 391 450 19,000  Level FlightAware ADS-B
Wed 07:28:59 PM 40.9070 -74.1697 114° Southeast 379 436 19,000  Level FlightAware ADS-B
Wed 07:29:27 PM 40.8873 -74.1179 117° Southeast 327 376 19,000 -414 Level FlightAware ADS-B
Wed 07:29:57 PM 40.8663 -74.0664 118° Southeast 310 357 18,600 -909 Descending FlightAware ADS-B
Wed 07:30:00 PM 40.8644 -74.0616 118° Southeast 310 357 18,500 -1,833 Descending FlightAware ADS-B (KSNC)
Wed 07:30:33 PM 40.8422 -74.0077 119° Southeast 309 356 17,500 -2,215 Descending FlightAware ADS-B
Wed 07:31:05 PM 40.8204 -73.9550 119° Southeast 301 346 16,100 -2,625 Descending FlightAware ADS-B
Wed 07:31:37 PM 40.8000 -73.9060 119° Southeast 291 335 14,700 -2,632 Descending FlightAware ADS-B
Wed 07:32:02 PM 40.7839 -73.8661 118° Southeast 297 342 13,600 -1,964 Descending FlightAware ADS-B
Wed 07:32:32 PM 40.7655 -73.8208 118° Southeast 284 327 12,900 -951 Descending FlightAware ADS-B (KSNC)
Wed 07:33:24 PM 40.7326 -73.7418 119° Southeast 279 321 12,300 -871 Descending FlightAware ADS-B (KSNC)
Wed 07:33:34 PM 40.7251 -73.7295 129° Southeast 280 322 12,000 -2,361 Descending FlightAware ADS-B (KSNC)
Wed 07:34:25 PM 40.6610 -73.7030 163° South 290 334 9,900 -2,368 Descending FlightAware ADS-B
Wed 07:34:50 PM 40.6290 -73.6960 171° South 284 327 9,000 -2,045 Descending FlightAware ADS-B
Wed 07:35:09 PM 40.6060 -73.6910 171° South 284 327 8,400 -1,538 Descending FlightAware ADS-B
Wed 07:35:29 PM 40.5800 -73.6850 170° South 280 322 8,000 -1,200 Descending FlightAware ADS-B
Wed 07:35:49 PM 40.5530 -73.6790 170° South 277 319 7,600 -545 Descending FlightAware ADS-B
Wed 07:36:13 PM 40.5230 -73.6720 170° South 277 319 7,600  Level FlightAware ADS-B
Wed 07:36:33 PM 40.4970 -73.6670 172° South 279 321 7,600 -585 Level FlightAware ADS-B
Wed 07:36:54 PM 40.4710 -73.6700 185° South 277 319 7,200 -1,500 Descending FlightAware ADS-B
Wed 07:37:13 PM 40.4480 -73.6750 189° South 274 315 6,600 -1,950 Descending FlightAware ADS-B
Wed 07:37:34 PM 40.4198 -73.6827 192° South 274 315 5,900 -2,091 Descending FlightAware ADS-B (KSNC)
Wed 07:38:19 PM 40.3890 -73.7380 234° Southwest 279 321 4,300 -2,286 Descending FlightAware ADS-B
Wed 07:38:37 PM 40.3870 -73.7710 265° West 284 327 3,500 -2,229 Descending FlightAware ADS-B
Wed 07:38:54 PM 40.3860 -73.8010 268° West 284 327 3,000 -1,600 Descending FlightAware ADS-B
Wed 07:39:07 PM 40.3870 -73.8190 274° West 276 318 2,700 -947 Descending FlightAware ADS-B
Wed 07:39:13 PM 40.3900 -73.8300 290° West 264 304 2,700 -429 Level FlightAware ADS-B
Wed 07:39:35 PM 40.4020 -73.8570 300° West 243 280 2,500 -750 Descending FlightAware ADS-B
Wed 07:39:53 PM 40.4130 -73.8820 300° West 229 264 2,200 -632 Descending FlightAware ADS-B
Wed 07:40:13 PM 40.4220 -73.9020 301° West 210 242 2,100 -600 Descending FlightAware ADS-B
Wed 07:40:23 PM 40.4290 -73.9130 310° West 193 222 1,900 -667 Descending FlightAware ADS-B
Wed 07:40:31 PM 40.4360 -73.9180 331° Northwest 180 207 1,900 -353 Level FlightAware ADS-B
Wed 07:40:40 PM 40.4410 -73.9200 343° North 173 199 1,800 -474 Descending FlightAware ADS-B
Wed 07:41:09 PM 40.4620 -73.9170 North 170 196 1,600 -218 Descending FlightAware ADS-B
Wed 07:41:35 PM 40.4840 -73.9050 23° Northeast 171 197 1,600  Level FlightAware ADS-B
Wed 07:41:55 PM 40.4970 -73.8950 30° Northeast 170 196 1,600  Level FlightAware ADS-B
Wed 07:42:15 PM 40.5100 -73.8840 33° Northeast 169 194 1,600  Level FlightAware ADS-B
Wed 07:42:37 PM 40.5250 -73.8720 31° Northeast 169 194 1,600  Level FlightAware ADS-B
Wed 07:42:56 PM 40.5380 -73.8620 30° Northeast 170 196 1,600  Level FlightAware ADS-B
Wed 07:43:20 PM 40.5550 -73.8480 32° Northeast 174 200 1,600 -400 Level FlightAware ADS-B
Wed 07:43:41 PM 40.5690 -73.8370 31° Northeast 168 193 1,300 -878 Descending FlightAware ADS-B
Wed 07:44:01 PM 40.5820 -73.8270 30° Northeast 153 176 1,000 -769 Descending FlightAware ADS-B
Wed 07:44:20 PM 40.5930 -73.8180 32° Northeast 132 152 800 -750 Descending FlightAware ADS-B
Wed 07:44:41 PM 40.6030 -73.8100 31° Northeast 119 137 500 -714 Descending FlightAware ADS-B
Wed 07:45:02 PM 40.6130 -73.8020 31° Northeast 125 144 300 -571 Descending FlightAware ADS-B
Wed 07:45:23 PM 40.6230 -73.7930 34° Northeast 126 145 100 -571 Descending FlightAware ADS-B
Wed 07:45:47 PM 40.6350 -73.7840 30° Northeast 123 142 -250 Descending FlightAware ADS-B
Wed 07:46:07 PM 40.6450 -73.7760 31° Northeast 110 127  Level FlightAware ADS-B

Login

Don't have an account? Register now (free) for customized features, flight alerts, and more!